createdAt,value
2018-03-15T00:02:01.290Z,53.62
2018-03-15T00:04:30.974Z,53.67
2018-03-15T00:06:57.727Z,53.67
2018-03-15T00:09:24.496Z,53.67
2018-03-15T00:11:51.248Z,53.65
2018-03-15T00:14:18.054Z,53.60
2018-03-15T00:16:44.818Z,53.62
2018-03-15T00:19:11.575Z,53.61
2018-03-15T00:21:38.377Z,53.61
2018-03-15T00:24:05.132Z,53.60
2018-03-15T00:26:31.883Z,53.59
2018-03-15T00:28:58.696Z,53.59
2018-03-15T00:31:25.464Z,53.57
2018-03-15T00:33:52.236Z,53.54
2018-03-15T00:36:19.028Z,53.56
2018-03-15T00:38:45.789Z,53.52
2018-03-15T00:41:12.542Z,53.55
2018-03-15T00:43:39.363Z,53.52
2018-03-15T00:46:06.092Z,53.51
2018-03-15T00:48:32.847Z,53.54
2018-03-15T00:50:59.626Z,53.49
2018-03-15T00:53:26.383Z,53.49
2018-03-15T00:55:53.145Z,53.47
2018-03-15T00:58:19.951Z,53.46
2018-03-15T01:00:46.703Z,53.43
2018-03-15T01:03:13.477Z,53.42
2018-03-15T01:05:40.286Z,53.42
2018-03-15T01:08:07.050Z,53.40
2018-03-15T01:10:33.832Z,53.38
2018-03-15T01:13:00.624Z,53.38
2018-03-15T01:15:27.399Z,53.36
2018-03-15T01:17:54.155Z,53.45
2018-03-15T01:20:20.959Z,53.33
2018-03-15T01:22:47.732Z,53.30
2018-03-15T01:25:14.502Z,53.29
2018-03-15T01:27:41.318Z,53.26
2018-03-15T01:30:08.084Z,53.24
2018-03-15T01:32:34.854Z,53.23
2018-03-15T01:35:01.640Z,53.18
2018-03-15T01:37:28.399Z,53.21
2018-03-15T01:39:55.160Z,53.18
2018-03-15T01:42:21.945Z,53.18
2018-03-15T01:44:48.700Z,53.16
2018-03-15T01:47:15.466Z,53.15
2018-03-15T01:49:42.255Z,53.12
2018-03-15T01:52:09.016Z,53.10
2018-03-15T01:54:35.789Z,53.11
2018-03-15T01:57:02.581Z,53.10
2018-03-15T01:59:29.335Z,53.08
2018-03-15T02:01:56.097Z,53.07
2018-03-15T02:04:22.883Z,53.04
2018-03-15T02:06:49.659Z,53.06
2018-03-15T02:09:16.416Z,52.99
2018-03-15T02:11:43.199Z,53.03
2018-03-15T02:14:09.974Z,53.02
2018-03-15T02:16:36.719Z,53.01
2018-03-15T02:19:03.557Z,52.97
2018-03-15T02:21:30.322Z,52.94
2018-03-15T02:23:57.085Z,52.95
2018-03-15T02:26:23.877Z,52.94
2018-03-15T02:28:50.639Z,52.95
2018-03-15T02:31:17.395Z,52.93
2018-03-15T02:33:44.180Z,52.92
2018-03-15T02:36:10.942Z,52.92
2018-03-15T02:38:37.693Z,52.85
2018-03-15T02:41:04.483Z,52.91
2018-03-15T02:43:31.243Z,52.85
2018-03-15T02:45:58.005Z,52.84
2018-03-15T02:48:24.792Z,52.83
2018-03-15T02:50:51.554Z,52.87
2018-03-15T02:53:18.387Z,52.81
2018-03-15T02:55:45.114Z,52.84
2018-03-15T02:58:11.875Z,52.84
2018-03-15T03:00:38.633Z,52.79
2018-03-15T03:03:05.455Z,52.74
2018-03-15T03:05:32.192Z,52.71
2018-03-15T03:07:58.951Z,52.70
2018-03-15T03:10:25.740Z,52.64
2018-03-15T03:12:52.497Z,52.75
2018-03-15T03:15:19.281Z,52.70
2018-03-15T03:17:46.292Z,52.79
2018-03-15T03:20:13.050Z,52.64
2018-03-15T03:22:39.809Z,52.58
2018-03-15T03:25:06.622Z,52.59
2018-03-15T03:27:33.375Z,52.58
2018-03-15T03:30:00.132Z,52.57
2018-03-15T03:32:26.920Z,52.55
2018-03-15T03:34:53.686Z,52.58
2018-03-15T03:37:20.441Z,52.56
2018-03-15T03:39:47.237Z,52.55
2018-03-15T03:42:13.991Z,52.55
2018-03-15T03:44:40.751Z,52.59
2018-03-15T03:47:07.540Z,52.55
2018-03-15T03:49:34.306Z,52.53
2018-03-15T03:52:01.069Z,52.51
2018-03-15T03:54:27.850Z,52.53
2018-03-15T03:56:54.605Z,52.56
2018-03-15T03:59:21.364Z,52.52
2018-03-15T04:01:48.160Z,52.52
2018-03-15T04:04:14.919Z,52.51
2018-03-15T04:06:41.691Z,52.47
2018-03-15T04:09:08.485Z,52.57
2018-03-15T04:11:35.242Z,52.59
2018-03-15T04:14:02.004Z,52.47
2018-03-15T04:16:28.804Z,52.40
2018-03-15T04:18:55.558Z,52.40
2018-03-15T04:21:22.329Z,52.37
2018-03-15T04:23:49.126Z,52.35
2018-03-15T04:26:15.888Z,52.36
2018-03-15T04:28:42.648Z,52.31
2018-03-15T04:31:09.448Z,52.31
2018-03-15T04:33:36.208Z,52.46
2018-03-15T04:36:02.969Z,52.29
2018-03-15T04:38:29.758Z,52.26
2018-03-15T04:40:56.515Z,52.26
2018-03-15T04:43:23.274Z,52.23
2018-03-15T04:45:50.080Z,52.19
2018-03-15T04:48:16.845Z,52.18
2018-03-15T04:50:43.613Z,52.15
2018-03-15T04:53:10.404Z,52.14
2018-03-15T04:55:37.169Z,52.12
2018-03-15T04:58:03.923Z,52.11
2018-03-15T05:00:30.721Z,52.10
2018-03-15T05:02:57.475Z,52.04
2018-03-15T05:05:24.241Z,52.03
2018-03-15T05:07:51.048Z,52.01
2018-03-15T05:10:17.817Z,52.00
2018-03-15T05:12:44.583Z,52.11
2018-03-15T05:15:11.377Z,52.11
2018-03-15T05:17:38.142Z,52.12
2018-03-15T05:20:04.904Z,51.93
2018-03-15T05:22:31.695Z,51.89
2018-03-15T05:24:58.488Z,51.82
2018-03-15T05:27:25.267Z,51.84
2018-03-15T05:29:52.045Z,51.80
2018-03-15T05:32:18.810Z,51.82
2018-03-15T05:34:45.587Z,51.76
2018-03-15T05:37:12.491Z,51.73
2018-03-15T05:39:39.230Z,51.77
2018-03-15T05:42:06.012Z,51.71
2018-03-15T05:44:32.804Z,51.70
2018-03-15T05:46:59.564Z,51.70
2018-03-15T05:49:26.331Z,51.68
2018-03-15T05:51:53.129Z,51.78
2018-03-15T05:54:19.884Z,51.79
2018-03-15T05:56:46.749Z,51.65
2018-03-15T05:59:13.544Z,51.58
2018-03-15T06:01:40.306Z,51.56
2018-03-15T06:04:07.070Z,51.54
2018-03-15T06:06:33.854Z,51.52
2018-03-15T06:09:00.688Z,51.52
2018-03-15T06:11:27.392Z,51.52
2018-03-15T06:13:54.195Z,51.60
2018-03-15T06:16:20.948Z,51.55
2018-03-15T06:18:47.727Z,51.44
2018-03-15T06:21:14.510Z,51.46
2018-03-15T06:23:41.267Z,51.58
2018-03-15T06:26:08.036Z,51.61
2018-03-15T06:28:34.830Z,51.63
2018-03-15T06:31:01.597Z,51.68
2018-03-15T06:33:28.359Z,51.61
2018-03-15T06:35:55.146Z,51.64
2018-03-15T06:38:21.916Z,51.67
2018-03-15T06:40:48.670Z,51.68
2018-03-15T06:43:15.466Z,51.54
2018-03-15T06:45:42.216Z,51.38
2018-03-15T06:48:08.973Z,51.33
2018-03-15T06:50:35.767Z,51.40
2018-03-15T06:53:02.517Z,51.46
2018-03-15T06:55:29.315Z,51.48
2018-03-15T06:57:56.059Z,51.57
2018-03-15T07:00:22.812Z,51.58
2018-03-15T07:02:49.600Z,51.69
2018-03-15T07:05:16.371Z,51.54
2018-03-15T07:07:43.157Z,51.70
2018-03-15T07:10:09.965Z,51.51
2018-03-15T07:12:36.741Z,51.63
2018-03-15T07:15:03.554Z,51.69
2018-03-15T07:17:30.272Z,51.86
2018-03-15T07:19:57.059Z,52.05
2018-03-15T07:22:23.865Z,52.24
2018-03-15T07:24:50.638Z,52.57
2018-03-15T07:27:17.411Z,52.63
2018-03-15T07:29:44.173Z,52.47
2018-03-15T07:32:10.961Z,52.46
2018-03-15T07:34:37.753Z,52.48
2018-03-15T07:37:04.526Z,52.48
2018-03-15T07:39:31.295Z,52.37
2018-03-15T07:41:58.094Z,52.39
2018-03-15T07:44:24.869Z,52.36
2018-03-15T07:46:51.637Z,52.36
2018-03-15T07:49:18.448Z,52.36
2018-03-15T07:51:45.222Z,52.29
2018-03-15T07:54:11.996Z,52.23
2018-03-15T07:56:38.789Z,52.22
2018-03-15T07:59:05.554Z,52.19
2018-03-15T08:01:32.333Z,52.17
2018-03-15T08:03:59.139Z,52.26
2018-03-15T08:06:25.913Z,52.37
2018-03-15T08:08:52.666Z,52.17
2018-03-15T08:11:19.468Z,52.16
2018-03-15T08:13:46.224Z,52.15
2018-03-15T08:16:12.990Z,52.11
2018-03-15T08:18:39.785Z,52.05
2018-03-15T08:21:06.563Z,51.97
2018-03-15T08:23:33.326Z,51.92
2018-03-15T08:26:02.930Z,51.88
2018-03-15T08:28:29.712Z,51.82
2018-03-15T08:30:56.474Z,51.82
2018-03-15T08:33:23.297Z,51.73
2018-03-15T08:35:50.040Z,51.71
2018-03-15T08:38:16.814Z,51.65
2018-03-15T08:40:43.643Z,51.58
2018-03-15T08:43:10.411Z,51.56
2018-03-15T08:45:37.245Z,51.48
2018-03-15T08:48:03.994Z,51.50
2018-03-15T08:50:30.787Z,51.47
2018-03-15T08:52:57.601Z,51.57
2018-03-15T08:55:24.402Z,51.47
2018-03-15T08:57:51.177Z,51.38
2018-03-15T09:00:17.937Z,51.36
2018-03-15T09:02:44.742Z,51.23
2018-03-15T09:05:11.500Z,51.17
2018-03-15T09:07:38.266Z,51.19
2018-03-15T09:10:05.059Z,51.18
2018-03-15T09:12:31.823Z,51.21
2018-03-15T09:14:58.571Z,51.21
2018-03-15T09:17:25.338Z,51.24
2018-03-15T09:19:52.091Z,51.23
2018-03-15T09:22:18.846Z,51.21
2018-03-15T09:24:45.632Z,51.21
2018-03-15T09:27:12.410Z,51.25
2018-03-15T09:29:39.184Z,51.20
2018-03-15T09:32:05.976Z,51.14
2018-03-15T09:34:32.820Z,51.09
2018-03-15T09:36:59.511Z,51.04
2018-03-15T09:39:26.300Z,50.95
2018-03-15T09:41:55.768Z,50.89
2018-03-15T09:44:22.515Z,50.84
2018-03-15T09:46:49.326Z,50.74
2018-03-15T09:49:16.075Z,50.71
2018-03-15T09:51:42.839Z,50.66
2018-03-15T09:54:09.615Z,50.65
2018-03-15T09:56:36.366Z,50.59
2018-03-15T09:59:03.101Z,50.62
2018-03-15T10:01:29.875Z,50.58
2018-03-15T10:03:56.633Z,50.60
2018-03-15T10:06:23.414Z,50.49
2018-03-15T10:08:50.203Z,50.53
2018-03-15T10:11:16.963Z,50.57
2018-03-15T10:13:43.709Z,50.63
2018-03-15T10:16:10.488Z,50.66
2018-03-15T10:18:37.253Z,50.66
2018-03-15T10:21:03.989Z,50.68
2018-03-15T10:23:30.794Z,50.65
2018-03-15T10:25:57.553Z,50.63
2018-03-15T10:28:24.336Z,50.60
2018-03-15T10:30:51.107Z,50.59
2018-03-15T10:33:35.803Z,50.56
2018-03-15T10:36:02.608Z,50.56
2018-03-15T10:38:29.379Z,50.50
2018-03-15T10:40:56.159Z,50.63
2018-03-15T10:43:22.950Z,50.65
2018-03-15T10:45:49.715Z,50.62
2018-03-15T10:48:16.467Z,50.41
2018-03-15T10:50:43.257Z,50.34
2018-03-15T10:53:10.028Z,50.35
2018-03-15T10:55:36.778Z,50.28
2018-03-15T10:58:03.562Z,50.32
2018-03-15T11:00:48.711Z,50.35
2018-03-15T11:03:18.449Z,50.30
2018-03-15T11:06:03.443Z,50.25
2018-03-15T11:08:30.259Z,50.12
2018-03-15T11:10:57.003Z,50.21
2018-03-15T11:13:23.771Z,50.13
2018-03-15T11:15:50.613Z,50.19
2018-03-15T11:18:17.372Z,50.14
2018-03-15T11:20:44.137Z,50.14
2018-03-15T11:23:10.929Z,50.10
2018-03-15T11:25:37.685Z,50.09
2018-03-15T11:28:04.446Z,50.03
2018-03-15T11:30:31.228Z,49.99
2018-03-15T11:32:57.991Z,49.98
2018-03-15T11:35:24.767Z,49.95
2018-03-15T11:37:51.560Z,49.93
2018-03-15T11:40:18.324Z,49.87
2018-03-15T11:42:45.087Z,49.79
2018-03-15T11:45:11.888Z,49.74
2018-03-15T11:47:38.646Z,49.76
2018-03-15T11:50:05.413Z,49.72
2018-03-15T11:52:32.220Z,49.66
2018-03-15T11:54:59.002Z,49.50
2018-03-15T11:57:25.772Z,49.45
2018-03-15T11:59:52.575Z,49.42
2018-03-15T12:02:19.344Z,49.65
2018-03-15T12:04:46.095Z,49.51
2018-03-15T12:07:12.885Z,49.44
2018-03-15T12:09:39.623Z,49.47
2018-03-15T12:12:06.372Z,49.51
2018-03-15T12:14:33.169Z,49.53
2018-03-15T12:16:59.932Z,49.55
2018-03-15T12:19:26.702Z,49.70
2018-03-15T12:21:53.489Z,49.67
2018-03-15T12:24:20.260Z,49.63
2018-03-15T12:26:47.040Z,49.63
2018-03-15T12:29:13.840Z,49.70
2018-03-15T12:31:40.612Z,49.66
2018-03-15T12:34:07.361Z,49.61
2018-03-15T12:36:34.147Z,49.51
2018-03-15T12:39:00.899Z,49.51
2018-03-15T12:41:27.653Z,49.54
2018-03-15T12:43:54.434Z,49.55
2018-03-15T12:46:21.193Z,49.55
2018-03-15T12:48:47.950Z,49.56
2018-03-15T12:51:14.738Z,49.56
2018-03-15T12:53:41.498Z,49.60
2018-03-15T12:56:08.251Z,49.63
2018-03-15T12:58:35.032Z,49.61
2018-03-15T13:01:01.791Z,49.63
2018-03-15T13:03:28.537Z,49.64
2018-03-15T13:05:55.309Z,49.64
2018-03-15T13:08:22.060Z,49.66
2018-03-15T13:10:48.814Z,49.77
2018-03-15T13:13:15.588Z,49.75
2018-03-15T13:15:42.362Z,49.70
2018-03-15T13:18:09.111Z,49.67
2018-03-15T13:20:35.886Z,49.69
2018-03-15T13:23:02.637Z,49.69
2018-03-15T13:25:29.393Z,49.76
2018-03-15T13:27:56.187Z,49.72
2018-03-15T13:30:22.997Z,49.76
2018-03-15T13:32:49.749Z,49.73
2018-03-15T13:35:16.499Z,49.75
2018-03-15T13:37:43.300Z,49.77
2018-03-15T13:40:10.109Z,49.77
2018-03-15T13:42:36.855Z,49.78
2018-03-15T13:45:03.684Z,49.77
2018-03-15T13:47:30.419Z,49.77
2018-03-15T13:49:57.212Z,49.81
2018-03-15T13:52:24.033Z,49.78
2018-03-15T13:54:50.802Z,49.79
2018-03-15T13:57:17.555Z,49.81
2018-03-15T13:59:44.351Z,49.80
2018-03-15T14:02:11.105Z,49.79
2018-03-15T14:04:37.864Z,49.80
2018-03-15T14:07:04.661Z,49.83
2018-03-15T14:09:31.460Z,49.85
2018-03-15T14:11:58.206Z,49.83
2018-03-15T14:14:25.015Z,49.86
2018-03-15T14:16:51.780Z,49.84
2018-03-15T14:19:18.532Z,49.87
2018-03-15T14:21:45.346Z,49.84
2018-03-15T14:24:12.092Z,49.84
2018-03-15T14:26:38.892Z,49.85
2018-03-15T14:29:05.651Z,49.85
2018-03-15T14:31:32.463Z,49.99
2018-03-15T14:33:59.218Z,49.92
2018-03-15T14:36:26.018Z,49.88
2018-03-15T14:38:52.836Z,49.97
2018-03-15T14:41:19.601Z,49.91
2018-03-15T14:43:46.401Z,49.87
2018-03-15T14:46:13.203Z,49.77
2018-03-15T14:48:39.957Z,49.76
2018-03-15T14:51:06.750Z,49.87
2018-03-15T14:53:33.511Z,49.77
2018-03-15T14:56:01.264Z,49.76
2018-03-15T14:58:27.915Z,49.80
2018-03-15T15:00:54.729Z,49.79
2018-03-15T15:03:21.492Z,49.81
2018-03-15T15:05:48.292Z,49.85
2018-03-15T15:08:15.214Z,49.84
2018-03-15T15:10:41.991Z,49.93
2018-03-15T15:13:08.793Z,49.88
2018-03-15T15:15:35.553Z,49.86
2018-03-15T15:18:02.349Z,49.91
2018-03-15T15:20:29.110Z,49.91
2018-03-15T15:22:55.930Z,49.99
2018-03-15T15:25:22.681Z,50.02
2018-03-15T15:27:49.474Z,49.90
2018-03-15T15:30:16.227Z,49.91
2018-03-15T15:32:43.023Z,49.90
2018-03-15T15:35:09.780Z,49.93
2018-03-15T15:37:36.524Z,50.06
2018-03-15T15:40:03.333Z,50.00
2018-03-15T15:42:30.099Z,49.97
2018-03-15T15:44:56.870Z,49.99
2018-03-15T15:47:23.622Z,49.99
2018-03-15T15:49:50.384Z,50.01
2018-03-15T15:52:17.138Z,50.00
2018-03-15T15:54:43.975Z,50.00
2018-03-15T15:57:10.730Z,50.02
2018-03-15T15:59:37.501Z,50.00
2018-03-15T16:02:04.284Z,50.02
2018-03-15T16:04:31.091Z,50.02
2018-03-15T16:06:57.849Z,49.98
2018-03-15T16:09:24.652Z,50.01
2018-03-15T16:11:51.416Z,50.00
2018-03-15T16:14:18.173Z,50.01
2018-03-15T16:16:44.921Z,50.03
2018-03-15T16:19:11.679Z,50.04
2018-03-15T16:21:38.464Z,50.02
2018-03-15T16:24:05.215Z,50.03
2018-03-15T16:26:31.981Z,50.06
2018-03-15T16:28:58.775Z,50.04
2018-03-15T16:31:25.580Z,50.04
2018-03-15T16:33:52.387Z,50.16
2018-03-15T16:36:19.136Z,50.05
2018-03-15T16:38:46.076Z,50.17
2018-03-15T16:41:12.839Z,50.21
2018-03-15T16:43:39.657Z,50.29
2018-03-15T16:46:06.420Z,50.33
2018-03-15T16:48:33.170Z,50.12
2018-03-15T16:50:59.919Z,50.23
2018-03-15T16:53:26.683Z,50.50
2018-03-15T16:55:53.434Z,50.34
2018-03-15T16:58:20.241Z,50.30
2018-03-15T17:00:47.005Z,50.30
2018-03-15T17:03:13.774Z,50.39
2018-03-15T17:05:40.522Z,50.51
2018-03-15T17:08:07.274Z,50.57
2018-03-15T17:10:34.058Z,50.51
2018-03-15T17:13:00.804Z,50.27
2018-03-15T17:15:27.568Z,50.18
2018-03-15T17:17:54.364Z,50.52
2018-03-15T17:20:21.129Z,50.36
2018-03-15T17:22:47.882Z,50.31
2018-03-15T17:25:14.659Z,50.63
2018-03-15T17:27:41.432Z,50.38
2018-03-15T17:30:09.789Z,50.58
2018-03-15T17:32:36.600Z,50.93
2018-03-15T17:35:03.416Z,50.95
2018-03-15T17:37:30.242Z,50.99
2018-03-15T17:39:57.099Z,51.31
2018-03-15T17:42:23.908Z,51.31
2018-03-15T17:44:50.684Z,51.31
2018-03-15T17:47:17.465Z,51.44
2018-03-15T17:49:44.218Z,51.34
2018-03-15T17:52:10.988Z,51.44
2018-03-15T17:54:37.747Z,51.47
2018-03-15T17:57:04.519Z,51.39
2018-03-15T17:59:31.291Z,51.66
2018-03-15T18:01:58.068Z,51.39
2018-03-15T18:04:24.820Z,51.25
2018-03-15T18:06:51.592Z,51.43
2018-03-15T18:09:18.388Z,51.49
2018-03-15T18:11:45.207Z,51.52
2018-03-15T18:14:11.977Z,51.43
2018-03-15T18:16:38.799Z,51.47
2018-03-15T18:19:05.572Z,51.54
2018-03-15T18:21:32.345Z,51.65
2018-03-15T18:23:59.118Z,51.93
2018-03-15T18:26:25.893Z,52.14
2018-03-15T18:28:52.679Z,52.19
2018-03-15T18:31:19.449Z,52.35
2018-03-15T18:33:46.280Z,52.33
2018-03-15T18:36:13.072Z,52.23
2018-03-15T18:38:39.864Z,52.32
2018-03-15T18:41:06.749Z,52.27
2018-03-15T18:43:33.516Z,52.36
2018-03-15T18:46:00.322Z,52.60
2018-03-15T18:48:27.070Z,52.50
2018-03-15T18:50:53.905Z,52.57
2018-03-15T18:53:20.724Z,52.74
2018-03-15T18:55:47.503Z,52.90
2018-03-15T18:58:14.292Z,53.04
2018-03-15T19:00:41.104Z,52.92
2018-03-15T19:03:07.885Z,53.07
2018-03-15T19:05:34.680Z,53.12
2018-03-15T19:08:04.137Z,53.06
2018-03-15T19:10:30.910Z,53.55
2018-03-15T19:12:57.734Z,53.61
2018-03-15T19:15:24.573Z,53.54
2018-03-15T19:17:51.290Z,53.50
2018-03-15T19:20:18.114Z,53.58
2018-03-15T19:22:46.778Z,53.64
2018-03-15T19:25:13.504Z,53.60
2018-03-15T19:27:40.284Z,53.61
2018-03-15T19:30:07.096Z,53.72
2018-03-15T19:32:33.932Z,53.71
2018-03-15T19:35:00.745Z,53.79
2018-03-15T19:37:27.493Z,53.81
2018-03-15T19:39:54.314Z,53.81
2018-03-15T19:42:21.094Z,54.01
2018-03-15T19:44:48.890Z,53.98
2018-03-15T19:47:15.673Z,53.90
2018-03-15T19:49:42.440Z,53.99
2018-03-15T19:52:09.273Z,54.05
2018-03-15T19:54:36.209Z,54.06
2018-03-15T19:57:02.921Z,54.00
2018-03-15T19:59:29.700Z,54.01
2018-03-15T20:01:56.480Z,54.05
2018-03-15T20:04:23.431Z,54.00
2018-03-15T20:06:50.143Z,53.98
2018-03-15T20:09:16.953Z,54.00
2018-03-15T20:13:50.232Z,46.60
2018-03-15T20:16:16.993Z,46.20
2018-03-15T20:18:43.768Z,46.34
2018-03-15T20:21:10.534Z,46.13
2018-03-15T20:26:16.733Z,50.98
2018-03-15T20:28:49.364Z,52.80
2018-03-15T20:31:17.310Z,53.54
2018-03-15T20:34:02.614Z,53.92
2018-03-15T20:36:29.438Z,54.13
2018-03-15T20:38:56.194Z,54.40
2018-03-15T20:41:31.735Z,54.49
2018-03-15T20:43:58.502Z,54.43
2018-03-15T20:46:27.942Z,54.36
2018-03-15T20:49:12.805Z,54.29
2018-03-15T20:51:39.568Z,54.20
2018-03-15T20:54:06.361Z,54.10
2018-03-15T20:56:33.122Z,54.04
2018-03-15T20:58:59.882Z,53.63
2018-03-15T21:01:26.649Z,53.82
2018-03-15T21:03:53.415Z,53.17
2018-03-15T21:06:20.205Z,52.75
2018-03-15T21:08:46.965Z,52.58
2018-03-15T21:11:13.765Z,52.56
2018-03-15T21:13:40.526Z,52.62
2018-03-15T21:16:07.331Z,52.70
2018-03-15T21:18:34.103Z,52.75
2018-03-15T21:21:00.865Z,52.81
2018-03-15T21:23:27.622Z,52.90
2018-03-15T21:25:54.423Z,52.89
2018-03-15T21:28:21.238Z,52.86
2018-03-15T21:30:47.990Z,52.89
2018-03-15T21:33:14.751Z,52.94
2018-03-15T21:35:41.508Z,52.93
2018-03-15T21:38:08.306Z,52.95
2018-03-15T21:40:35.068Z,52.93
2018-03-15T21:43:01.869Z,52.93
2018-03-15T21:45:28.658Z,52.95
2018-03-15T21:47:55.464Z,52.88
2018-03-15T21:50:22.224Z,52.92
2018-03-15T21:52:48.988Z,52.90
2018-03-15T21:55:15.743Z,52.87
2018-03-15T21:57:42.507Z,52.88
2018-03-15T22:00:09.311Z,52.83
2018-03-15T22:02:36.066Z,52.80
2018-03-15T22:05:02.963Z,52.77
2018-03-15T22:07:29.740Z,52.79
2018-03-15T22:09:56.491Z,52.72
2018-03-15T22:12:23.251Z,52.66
2018-03-15T22:14:50.047Z,52.65
2018-03-15T22:17:16.803Z,52.61
2018-03-15T22:19:43.608Z,52.59
2018-03-15T22:22:10.370Z,52.57
2018-03-15T22:24:37.148Z,52.52
2018-03-15T22:27:03.948Z,52.50
2018-03-15T22:29:30.712Z,52.39
2018-03-15T22:31:57.511Z,52.44
2018-03-15T22:34:24.268Z,52.42
2018-03-15T22:36:51.031Z,52.40
2018-03-15T22:39:17.787Z,52.38
2018-03-15T22:41:44.588Z,52.41
2018-03-15T22:44:11.414Z,52.37
2018-03-15T22:46:38.174Z,52.38
2018-03-15T22:49:04.923Z,52.33
2018-03-15T22:51:31.737Z,52.39
2018-03-15T22:53:58.543Z,52.33
2018-03-15T22:56:25.335Z,52.36
2018-03-15T22:58:52.094Z,52.31
2018-03-15T23:01:18.852Z,52.31
2018-03-15T23:03:45.611Z,52.27
2018-03-15T23:06:12.371Z,52.28
2018-03-15T23:08:39.130Z,52.29
2018-03-15T23:11:05.930Z,52.27
2018-03-15T23:13:32.686Z,52.25
2018-03-15T23:15:59.450Z,52.18
2018-03-15T23:18:26.214Z,52.16
2018-03-15T23:20:52.985Z,52.17
2018-03-15T23:23:19.744Z,52.17
2018-03-15T23:25:46.512Z,52.09
2018-03-15T23:28:13.265Z,52.10
2018-03-15T23:30:40.031Z,52.05
2018-03-15T23:33:06.804Z,51.99
2018-03-15T23:35:33.614Z,52.01
2018-03-15T23:38:00.363Z,51.95
2018-03-15T23:40:27.163Z,51.94
2018-03-15T23:42:53.925Z,51.93
2018-03-15T23:45:20.687Z,51.94
2018-03-15T23:47:47.491Z,52.00
2018-03-15T23:50:14.257Z,51.92
2018-03-15T23:52:41.024Z,51.88
2018-03-15T23:55:07.838Z,51.85
2018-03-15T23:57:34.599Z,51.81
